sensor_id;sensor_type;location;lat;lon;timestamp;P1;durP1;ratioP1;P2;durP2;ratioP2
11709;SDS011;5911;51.036;6.972;2023-09-07T00:00:58;4.10;;;3.75;;
11709;SDS011;5911;51.036;6.972;2023-09-07T00:03:27;4.10;;;3.70;;
11709;SDS011;5911;51.036;6.972;2023-09-07T00:05:54;4.88;;;4.28;;
11709;SDS011;5911;51.036;6.972;2023-09-07T00:08:22;6.32;;;4.40;;
11709;SDS011;5911;51.036;6.972;2023-09-07T00:10:51;5.30;;;3.90;;
11709;SDS011;5911;51.036;6.972;2023-09-07T00:13:20;4.43;;;4.03;;
11709;SDS011;5911;51.036;6.972;2023-09-07T00:15:47;4.85;;;4.40;;
11709;SDS011;5911;51.036;6.972;2023-09-07T00:18:15;5.25;;;4.25;;
11709;SDS011;5911;51.036;6.972;2023-09-07T00:20:45;6.28;;;4.03;;
11709;SDS011;5911;51.036;6.972;2023-09-07T00:23:13;6.85;;;4.25;;
11709;SDS011;5911;51.036;6.972;2023-09-07T00:25:40;6.30;;;4.60;;
11709;SDS011;5911;51.036;6.972;2023-09-07T00:28:08;4.97;;;3.90;;
11709;SDS011;5911;51.036;6.972;2023-09-07T00:30:37;7.00;;;4.25;;
11709;SDS011;5911;51.036;6.972;2023-09-07T00:33:05;5.35;;;4.53;;
11709;SDS011;5911;51.036;6.972;2023-09-07T00:35:33;6.22;;;4.28;;
11709;SDS011;5911;51.036;6.972;2023-09-07T00:38:00;4.82;;;3.80;;
11709;SDS011;5911;51.036;6.972;2023-09-07T00:40:28;4.22;;;3.83;;
11709;SDS011;5911;51.036;6.972;2023-09-07T00:42:55;6.00;;;4.25;;
11709;SDS011;5911;51.036;6.972;2023-09-07T00:45:23;6.75;;;5.10;;
11709;SDS011;5911;51.036;6.972;2023-09-07T00:47:52;5.55;;;4.07;;
11709;SDS011;5911;51.036;6.972;2023-09-07T00:50:20;5.45;;;4.32;;
11709;SDS011;5911;51.036;6.972;2023-09-07T00:52:47;5.30;;;4.80;;
11709;SDS011;5911;51.036;6.972;2023-09-07T00:55:15;7.13;;;4.93;;
11709;SDS011;5911;51.036;6.972;2023-09-07T00:57:44;7.10;;;5.35;;
11709;SDS011;5911;51.036;6.972;2023-09-07T01:00:12;8.48;;;4.60;;
11709;SDS011;5911;51.036;6.972;2023-09-07T01:02:40;5.30;;;4.75;;
11709;SDS011;5911;51.036;6.972;2023-09-07T01:05:10;5.13;;;4.63;;
11709;SDS011;5911;51.036;6.972;2023-09-07T01:07:38;5.85;;;4.18;;
11709;SDS011;5911;51.036;6.972;2023-09-07T01:10:07;7.75;;;5.28;;
11709;SDS011;5911;51.036;6.972;2023-09-07T01:12:35;6.90;;;4.50;;
11709;SDS011;5911;51.036;6.972;2023-09-07T01:15:03;4.88;;;4.22;;
11709;SDS011;5911;51.036;6.972;2023-09-07T01:17:31;6.82;;;4.70;;
11709;SDS011;5911;51.036;6.972;2023-09-07T01:19:59;5.35;;;4.35;;
11709;SDS011;5911;51.036;6.972;2023-09-07T01:22:33;5.38;;;4.35;;
11709;SDS011;5911;51.036;6.972;2023-09-07T01:25:01;5.10;;;4.38;;
11709;SDS011;5911;51.036;6.972;2023-09-07T01:27:31;6.93;;;4.20;;
11709;SDS011;5911;51.036;6.972;2023-09-07T01:29:58;6.35;;;4.65;;
11709;SDS011;5911;51.036;6.972;2023-09-07T01:32:26;6.07;;;4.63;;
11709;SDS011;5911;51.036;6.972;2023-09-07T01:34:54;5.82;;;4.90;;
11709;SDS011;5911;51.036;6.972;2023-09-07T01:37:22;7.65;;;4.85;;
11709;SDS011;5911;51.036;6.972;2023-09-07T01:39:51;4.57;;;4.15;;
11709;SDS011;5911;51.036;6.972;2023-09-07T01:42:19;4.65;;;4.03;;
11709;SDS011;5911;51.036;6.972;2023-09-07T01:44:47;5.22;;;4.38;;
11709;SDS011;5911;51.036;6.972;2023-09-07T01:47:15;5.10;;;4.28;;
11709;SDS011;5911;51.036;6.972;2023-09-07T01:49:43;5.63;;;4.68;;
11709;SDS011;5911;51.036;6.972;2023-09-07T01:52:10;5.22;;;4.60;;
11709;SDS011;5911;51.036;6.972;2023-09-07T01:54:38;5.43;;;4.80;;
11709;SDS011;5911;51.036;6.972;2023-09-07T01:57:07;8.25;;;5.00;;
11709;SDS011;5911;51.036;6.972;2023-09-07T01:59:34;5.07;;;4.53;;
11709;SDS011;5911;51.036;6.972;2023-09-07T02:02:02;9.50;;;5.18;;
11709;SDS011;5911;51.036;6.972;2023-09-07T02:04:30;5.35;;;4.85;;
11709;SDS011;5911;51.036;6.972;2023-09-07T02:06:57;7.80;;;5.38;;
11709;SDS011;5911;51.036;6.972;2023-09-07T02:09:25;8.13;;;4.93;;
11709;SDS011;5911;51.036;6.972;2023-09-07T02:11:52;6.55;;;5.10;;
11709;SDS011;5911;51.036;6.972;2023-09-07T02:14:21;7.60;;;5.07;;
11709;SDS011;5911;51.036;6.972;2023-09-07T02:16:48;6.82;;;5.95;;
11709;SDS011;5911;51.036;6.972;2023-09-07T02:19:17;6.47;;;5.32;;
11709;SDS011;5911;51.036;6.972;2023-09-07T02:21:44;6.57;;;5.30;;
11709;SDS011;5911;51.036;6.972;2023-09-07T02:24:12;5.97;;;4.80;;
11709;SDS011;5911;51.036;6.972;2023-09-07T02:26:40;7.10;;;5.22;;
11709;SDS011;5911;51.036;6.972;2023-09-07T02:29:11;5.55;;;4.43;;
11709;SDS011;5911;51.036;6.972;2023-09-07T02:31:40;6.05;;;4.65;;
11709;SDS011;5911;51.036;6.972;2023-09-07T02:34:08;5.57;;;4.68;;
11709;SDS011;5911;51.036;6.972;2023-09-07T02:36:36;6.20;;;5.07;;
11709;SDS011;5911;51.036;6.972;2023-09-07T02:39:03;6.72;;;5.13;;
11709;SDS011;5911;51.036;6.972;2023-09-07T02:41:31;6.15;;;4.70;;
11709;SDS011;5911;51.036;6.972;2023-09-07T02:43:59;8.15;;;5.15;;
11709;SDS011;5911;51.036;6.972;2023-09-07T02:46:26;6.25;;;4.50;;
11709;SDS011;5911;51.036;6.972;2023-09-07T02:48:55;5.13;;;4.50;;
11709;SDS011;5911;51.036;6.972;2023-09-07T02:51:24;7.65;;;4.78;;
11709;SDS011;5911;51.036;6.972;2023-09-07T02:53:56;4.97;;;4.47;;
11709;SDS011;5911;51.036;6.972;2023-09-07T02:56:23;10.45;;;5.30;;
11709;SDS011;5911;51.036;6.972;2023-09-07T02:58:51;5.68;;;4.85;;
11709;SDS011;5911;51.036;6.972;2023-09-07T03:01:18;5.93;;;5.10;;
11709;SDS011;5911;51.036;6.972;2023-09-07T03:03:47;6.07;;;5.38;;
11709;SDS011;5911;51.036;6.972;2023-09-07T03:06:17;7.13;;;4.38;;
11709;SDS011;5911;51.036;6.972;2023-09-07T03:08:47;7.20;;;5.00;;
11709;SDS011;5911;51.036;6.972;2023-09-07T03:11:15;7.30;;;5.75;;
11709;SDS011;5911;51.036;6.972;2023-09-07T03:13:43;5.82;;;5.18;;
11709;SDS011;5911;51.036;6.972;2023-09-07T03:16:11;5.28;;;4.78;;
11709;SDS011;5911;51.036;6.972;2023-09-07T03:18:39;5.97;;;5.43;;
11709;SDS011;5911;51.036;6.972;2023-09-07T03:21:07;5.85;;;5.20;;
11709;SDS011;5911;51.036;6.972;2023-09-07T03:23:36;6.05;;;5.10;;
11709;SDS011;5911;51.036;6.972;2023-09-07T03:26:05;5.53;;;4.90;;
11709;SDS011;5911;51.036;6.972;2023-09-07T03:28:33;5.28;;;4.63;;
11709;SDS011;5911;51.036;6.972;2023-09-07T03:31:02;5.47;;;4.82;;
11709;SDS011;5911;51.036;6.972;2023-09-07T03:33:31;5.25;;;4.72;;
11709;SDS011;5911;51.036;6.972;2023-09-07T03:35:58;5.45;;;4.70;;
11709;SDS011;5911;51.036;6.972;2023-09-07T03:38:26;6.10;;;5.15;;
11709;SDS011;5911;51.036;6.972;2023-09-07T03:40:55;5.35;;;4.88;;
11709;SDS011;5911;51.036;6.972;2023-09-07T03:43:23;7.45;;;5.32;;
11709;SDS011;5911;51.036;6.972;2023-09-07T03:45:50;6.43;;;5.38;;
11709;SDS011;5911;51.036;6.972;2023-09-07T03:48:18;6.53;;;5.53;;
11709;SDS011;5911;51.036;6.972;2023-09-07T03:50:47;7.35;;;5.78;;
11709;SDS011;5911;51.036;6.972;2023-09-07T03:53:14;6.50;;;5.07;;
11709;SDS011;5911;51.036;6.972;2023-09-07T03:55:44;8.63;;;5.28;;
11709;SDS011;5911;51.036;6.972;2023-09-07T03:58:16;6.85;;;5.40;;
11709;SDS011;5911;51.036;6.972;2023-09-07T04:00:44;8.77;;;5.15;;
11709;SDS011;5911;51.036;6.972;2023-09-07T04:03:11;7.30;;;5.10;;
11709;SDS011;5911;51.036;6.972;2023-09-07T04:05:39;8.10;;;5.57;;
11709;SDS011;5911;51.036;6.972;2023-09-07T04:08:06;7.85;;;5.47;;
11709;SDS011;5911;51.036;6.972;2023-09-07T04:10:36;6.63;;;5.50;;
11709;SDS011;5911;51.036;6.972;2023-09-07T04:13:04;6.88;;;5.38;;
11709;SDS011;5911;51.036;6.972;2023-09-07T04:15:32;6.97;;;5.05;;
11709;SDS011;5911;51.036;6.972;2023-09-07T04:18:00;6.72;;;5.13;;
11709;SDS011;5911;51.036;6.972;2023-09-07T04:20:28;6.22;;;5.03;;
11709;SDS011;5911;51.036;6.972;2023-09-07T04:22:55;6.68;;;5.15;;
11709;SDS011;5911;51.036;6.972;2023-09-07T04:25:23;6.28;;;5.68;;
11709;SDS011;5911;51.036;6.972;2023-09-07T04:27:52;8.68;;;5.90;;
11709;SDS011;5911;51.036;6.972;2023-09-07T04:30:19;7.45;;;5.47;;
11709;SDS011;5911;51.036;6.972;2023-09-07T04:32:48;7.43;;;5.75;;
11709;SDS011;5911;51.036;6.972;2023-09-07T04:35:16;8.35;;;5.90;;
11709;SDS011;5911;51.036;6.972;2023-09-07T04:37:44;6.80;;;5.38;;
11709;SDS011;5911;51.036;6.972;2023-09-07T04:40:12;9.63;;;6.60;;
11709;SDS011;5911;51.036;6.972;2023-09-07T04:42:39;7.80;;;5.63;;
11709;SDS011;5911;51.036;6.972;2023-09-07T04:45:07;8.05;;;6.00;;
11709;SDS011;5911;51.036;6.972;2023-09-07T04:47:35;7.85;;;6.15;;
11709;SDS011;5911;51.036;6.972;2023-09-07T04:50:06;8.95;;;6.03;;
11709;SDS011;5911;51.036;6.972;2023-09-07T04:52:34;9.45;;;5.95;;
11709;SDS011;5911;51.036;6.972;2023-09-07T04:55:01;7.43;;;5.80;;
11709;SDS011;5911;51.036;6.972;2023-09-07T04:57:30;7.00;;;5.47;;
11709;SDS011;5911;51.036;6.972;2023-09-07T04:59:57;7.28;;;5.70;;
11709;SDS011;5911;51.036;6.972;2023-09-07T05:02:25;10.73;;;5.07;;
11709;SDS011;5911;51.036;6.972;2023-09-07T05:04:52;8.02;;;5.53;;
11709;SDS011;5911;51.036;6.972;2023-09-07T05:07:21;8.50;;;5.85;;
11709;SDS011;5911;51.036;6.972;2023-09-07T05:09:49;9.07;;;6.07;;
11709;SDS011;5911;51.036;6.972;2023-09-07T05:12:16;8.77;;;5.03;;
11709;SDS011;5911;51.036;6.972;2023-09-07T05:14:46;7.40;;;4.85;;
11709;SDS011;5911;51.036;6.972;2023-09-07T05:17:13;7.63;;;5.93;;
11709;SDS011;5911;51.036;6.972;2023-09-07T05:19:41;7.35;;;5.15;;
11709;SDS011;5911;51.036;6.972;2023-09-07T05:22:10;7.63;;;5.28;;
11709;SDS011;5911;51.036;6.972;2023-09-07T05:24:39;6.28;;;5.28;;
11709;SDS011;5911;51.036;6.972;2023-09-07T05:27:07;5.10;;;4.50;;
11709;SDS011;5911;51.036;6.972;2023-09-07T05:29:34;6.47;;;5.20;;
11709;SDS011;5911;51.036;6.972;2023-09-07T05:32:02;6.60;;;5.00;;
11709;SDS011;5911;51.036;6.972;2023-09-07T05:34:30;9.48;;;5.80;;
11709;SDS011;5911;51.036;6.972;2023-09-07T05:36:58;10.70;;;6.78;;
11709;SDS011;5911;51.036;6.972;2023-09-07T05:39:26;9.60;;;5.95;;
11709;SDS011;5911;51.036;6.972;2023-09-07T05:41:54;10.57;;;5.63;;
11709;SDS011;5911;51.036;6.972;2023-09-07T05:44:22;7.53;;;5.25;;
11709;SDS011;5911;51.036;6.972;2023-09-07T05:46:49;6.30;;;5.45;;
11709;SDS011;5911;51.036;6.972;2023-09-07T05:49:17;7.63;;;5.57;;
11709;SDS011;5911;51.036;6.972;2023-09-07T05:51:45;5.97;;;5.35;;
11709;SDS011;5911;51.036;6.972;2023-09-07T05:54:12;9.05;;;5.55;;
11709;SDS011;5911;51.036;6.972;2023-09-07T05:56:40;5.60;;;4.75;;
11709;SDS011;5911;51.036;6.972;2023-09-07T05:59:09;6.68;;;5.38;;
11709;SDS011;5911;51.036;6.972;2023-09-07T06:01:37;8.25;;;5.22;;
11709;SDS011;5911;51.036;6.972;2023-09-07T06:04:05;6.13;;;4.97;;
11709;SDS011;5911;51.036;6.972;2023-09-07T06:06:33;7.30;;;4.90;;
11709;SDS011;5911;51.036;6.972;2023-09-07T06:09:01;5.78;;;4.95;;
11709;SDS011;5911;51.036;6.972;2023-09-07T06:11:30;5.93;;;4.90;;
11709;SDS011;5911;51.036;6.972;2023-09-07T06:13:59;5.28;;;4.78;;
11709;SDS011;5911;51.036;6.972;2023-09-07T06:16:28;8.13;;;5.38;;
11709;SDS011;5911;51.036;6.972;2023-09-07T06:18:55;6.80;;;4.97;;
11709;SDS011;5911;51.036;6.972;2023-09-07T06:21:23;5.53;;;4.65;;
11709;SDS011;5911;51.036;6.972;2023-09-07T06:23:51;6.35;;;5.30;;
11709;SDS011;5911;51.036;6.972;2023-09-07T06:26:19;7.05;;;5.40;;
11709;SDS011;5911;51.036;6.972;2023-09-07T06:28:46;6.97;;;5.55;;
11709;SDS011;5911;51.036;6.972;2023-09-07T06:31:14;7.57;;;6.07;;
11709;SDS011;5911;51.036;6.972;2023-09-07T06:33:46;5.85;;;5.30;;
11709;SDS011;5911;51.036;6.972;2023-09-07T06:36:14;10.00;;;5.38;;
11709;SDS011;5911;51.036;6.972;2023-09-07T06:38:41;8.98;;;5.32;;
11709;SDS011;5911;51.036;6.972;2023-09-07T06:41:09;11.90;;;5.32;;
11709;SDS011;5911;51.036;6.972;2023-09-07T06:43:38;5.93;;;4.78;;
11709;SDS011;5911;51.036;6.972;2023-09-07T06:46:07;8.13;;;5.60;;
11709;SDS011;5911;51.036;6.972;2023-09-07T06:48:36;9.38;;;5.68;;
11709;SDS011;5911;51.036;6.972;2023-09-07T06:51:05;7.22;;;6.00;;
11709;SDS011;5911;51.036;6.972;2023-09-07T06:53:35;7.75;;;5.80;;
11709;SDS011;5911;51.036;6.972;2023-09-07T06:56:22;7.85;;;5.85;;
11709;SDS011;5911;51.036;6.972;2023-09-07T06:58:51;10.23;;;6.28;;
11709;SDS011;5911;51.036;6.972;2023-09-07T07:01:19;7.05;;;5.38;;
11709;SDS011;5911;51.036;6.972;2023-09-07T07:03:46;7.30;;;5.70;;
11709;SDS011;5911;51.036;6.972;2023-09-07T07:06:17;6.90;;;5.32;;
11709;SDS011;5911;51.036;6.972;2023-09-07T07:08:45;8.00;;;5.25;;
11709;SDS011;5911;51.036;6.972;2023-09-07T07:11:12;8.20;;;5.88;;
11709;SDS011;5911;51.036;6.972;2023-09-07T07:13:40;8.00;;;5.20;;
11709;SDS011;5911;51.036;6.972;2023-09-07T07:16:08;9.07;;;5.68;;
11709;SDS011;5911;51.036;6.972;2023-09-07T07:18:38;7.70;;;6.18;;
11709;SDS011;5911;51.036;6.972;2023-09-07T07:21:21;8.10;;;5.50;;
11709;SDS011;5911;51.036;6.972;2023-09-07T07:23:49;7.50;;;5.82;;
11709;SDS011;5911;51.036;6.972;2023-09-07T07:26:16;11.30;;;7.13;;
11709;SDS011;5911;51.036;6.972;2023-09-07T07:28:44;10.00;;;6.20;;
11709;SDS011;5911;51.036;6.972;2023-09-07T07:31:12;11.88;;;6.88;;
11709;SDS011;5911;51.036;6.972;2023-09-07T07:33:43;7.72;;;6.32;;
11709;SDS011;5911;51.036;6.972;2023-09-07T07:36:12;9.50;;;6.47;;
11709;SDS011;5911;51.036;6.972;2023-09-07T07:38:41;8.93;;;6.20;;
11709;SDS011;5911;51.036;6.972;2023-09-07T07:41:08;10.50;;;6.47;;
11709;SDS011;5911;51.036;6.972;2023-09-07T07:43:36;8.80;;;6.40;;
11709;SDS011;5911;51.036;6.972;2023-09-07T07:46:04;10.23;;;5.88;;
11709;SDS011;5911;51.036;6.972;2023-09-07T07:48:32;6.35;;;5.40;;
11709;SDS011;5911;51.036;6.972;2023-09-07T07:51:02;10.30;;;5.40;;
11709;SDS011;5911;51.036;6.972;2023-09-07T07:53:31;6.10;;;5.10;;
11709;SDS011;5911;51.036;6.972;2023-09-07T07:56:01;7.18;;;5.03;;
11709;SDS011;5911;51.036;6.972;2023-09-07T07:58:29;7.13;;;5.68;;
11709;SDS011;5911;51.036;6.972;2023-09-07T08:00:57;8.32;;;5.78;;
11709;SDS011;5911;51.036;6.972;2023-09-07T08:03:29;9.73;;;7.22;;
11709;SDS011;5911;51.036;6.972;2023-09-07T08:05:57;6.03;;;5.40;;
11709;SDS011;5911;51.036;6.972;2023-09-07T08:08:25;8.43;;;5.30;;
11709;SDS011;5911;51.036;6.972;2023-09-07T08:10:52;8.38;;;6.18;;
11709;SDS011;5911;51.036;6.972;2023-09-07T08:13:22;9.93;;;7.25;;
11709;SDS011;5911;51.036;6.972;2023-09-07T08:15:49;7.97;;;6.50;;
11709;SDS011;5911;51.036;6.972;2023-09-07T08:18:17;7.20;;;6.10;;
11709;SDS011;5911;51.036;6.972;2023-09-07T08:20:45;6.97;;;5.78;;
11709;SDS011;5911;51.036;6.972;2023-09-07T08:23:13;7.57;;;6.18;;
11709;SDS011;5911;51.036;6.972;2023-09-07T08:25:40;10.40;;;5.30;;
11709;SDS011;5911;51.036;6.972;2023-09-07T08:28:13;6.50;;;5.28;;
11709;SDS011;5911;51.036;6.972;2023-09-07T08:30:43;5.47;;;4.97;;
11709;SDS011;5911;51.036;6.972;2023-09-07T08:33:11;5.20;;;4.72;;
11709;SDS011;5911;51.036;6.972;2023-09-07T08:35:38;6.43;;;4.88;;
11709;SDS011;5911;51.036;6.972;2023-09-07T08:38:10;7.03;;;5.00;;
11709;SDS011;5911;51.036;6.972;2023-09-07T08:40:38;8.65;;;5.97;;
11709;SDS011;5911;51.036;6.972;2023-09-07T08:43:07;7.78;;;5.63;;
11709;SDS011;5911;51.036;6.972;2023-09-07T08:45:37;7.72;;;5.03;;
11709;SDS011;5911;51.036;6.972;2023-09-07T08:48:08;7.78;;;5.53;;
11709;SDS011;5911;51.036;6.972;2023-09-07T08:50:36;6.35;;;4.68;;
11709;SDS011;5911;51.036;6.972;2023-09-07T08:53:04;5.75;;;5.18;;
11709;SDS011;5911;51.036;6.972;2023-09-07T08:55:33;7.60;;;4.55;;
11709;SDS011;5911;51.036;6.972;2023-09-07T08:58:01;10.20;;;8.15;;
11709;SDS011;5911;51.036;6.972;2023-09-07T09:00:28;7.13;;;5.10;;
11709;SDS011;5911;51.036;6.972;2023-09-07T09:02:56;5.95;;;4.80;;
11709;SDS011;5911;51.036;6.972;2023-09-07T09:05:26;11.75;;;5.55;;
11709;SDS011;5911;51.036;6.972;2023-09-07T09:08:01;7.88;;;5.32;;
11709;SDS011;5911;51.036;6.972;2023-09-07T09:10:31;5.43;;;3.95;;
11709;SDS011;5911;51.036;6.972;2023-09-07T09:12:58;6.70;;;5.68;;
11709;SDS011;5911;51.036;6.972;2023-09-07T09:15:26;5.50;;;4.72;;
11709;SDS011;5911;51.036;6.972;2023-09-07T09:17:54;5.05;;;4.55;;
11709;SDS011;5911;51.036;6.972;2023-09-07T09:20:22;6.30;;;5.00;;
11709;SDS011;5911;51.036;6.972;2023-09-07T09:22:52;5.70;;;4.38;;
11709;SDS011;5911;51.036;6.972;2023-09-07T09:25:20;6.57;;;4.60;;
11709;SDS011;5911;51.036;6.972;2023-09-07T09:27:47;6.15;;;4.35;;
11709;SDS011;5911;51.036;6.972;2023-09-07T09:30:15;7.70;;;4.90;;
11709;SDS011;5911;51.036;6.972;2023-09-07T09:32:43;6.00;;;5.40;;
11709;SDS011;5911;51.036;6.972;2023-09-07T09:35:11;9.77;;;6.50;;
11709;SDS011;5911;51.036;6.972;2023-09-07T09:37:45;8.48;;;6.70;;
11709;SDS011;5911;51.036;6.972;2023-09-07T09:40:14;8.18;;;5.53;;
11709;SDS011;5911;51.036;6.972;2023-09-07T09:42:43;5.82;;;4.57;;
11709;SDS011;5911;51.036;6.972;2023-09-07T09:45:11;7.53;;;5.03;;
11709;SDS011;5911;51.036;6.972;2023-09-07T09:47:39;5.55;;;4.95;;
11709;SDS011;5911;51.036;6.972;2023-09-07T09:50:08;7.95;;;5.03;;
11709;SDS011;5911;51.036;6.972;2023-09-07T09:52:37;5.70;;;4.88;;
11709;SDS011;5911;51.036;6.972;2023-09-07T09:55:05;7.40;;;5.65;;
11709;SDS011;5911;51.036;6.972;2023-09-07T09:57:35;6.78;;;4.55;;
11709;SDS011;5911;51.036;6.972;2023-09-07T10:00:03;7.50;;;5.57;;
11709;SDS011;5911;51.036;6.972;2023-09-07T10:02:46;6.45;;;4.85;;
11709;SDS011;5911;51.036;6.972;2023-09-07T10:05:14;4.90;;;4.40;;
11709;SDS011;5911;51.036;6.972;2023-09-07T10:07:42;5.82;;;5.00;;
11709;SDS011;5911;51.036;6.972;2023-09-07T10:10:12;5.18;;;4.68;;
11709;SDS011;5911;51.036;6.972;2023-09-07T10:12:42;5.03;;;4.53;;
11709;SDS011;5911;51.036;6.972;2023-09-07T10:15:22;4.80;;;4.00;;
11709;SDS011;5911;51.036;6.972;2023-09-07T10:17:50;4.45;;;4.05;;
11709;SDS011;5911;51.036;6.972;2023-09-07T10:20:19;7.45;;;4.43;;
11709;SDS011;5911;51.036;6.972;2023-09-07T10:22:50;4.55;;;4.10;;
11709;SDS011;5911;51.036;6.972;2023-09-07T10:25:18;7.50;;;4.28;;
11709;SDS011;5911;51.036;6.972;2023-09-07T10:27:47;6.80;;;4.90;;
11709;SDS011;5911;51.036;6.972;2023-09-07T10:30:14;10.00;;;5.47;;
11709;SDS011;5911;51.036;6.972;2023-09-07T10:32:45;5.78;;;4.30;;
11709;SDS011;5911;51.036;6.972;2023-09-07T10:35:13;4.60;;;4.20;;
11709;SDS011;5911;51.036;6.972;2023-09-07T10:37:44;5.93;;;3.95;;
11709;SDS011;5911;51.036;6.972;2023-09-07T10:40:11;6.28;;;4.25;;
11709;SDS011;5911;51.036;6.972;2023-09-07T10:42:42;5.57;;;4.47;;
11709;SDS011;5911;51.036;6.972;2023-09-07T10:45:12;4.15;;;3.75;;
11709;SDS011;5911;51.036;6.972;2023-09-07T10:47:42;5.25;;;4.00;;
11709;SDS011;5911;51.036;6.972;2023-09-07T10:50:11;3.80;;;3.40;;
11709;SDS011;5911;51.036;6.972;2023-09-07T10:52:40;4.88;;;4.45;;
11709;SDS011;5911;51.036;6.972;2023-09-07T10:55:08;4.40;;;4.00;;
11709;SDS011;5911;51.036;6.972;2023-09-07T10:57:42;3.83;;;3.50;;
11709;SDS011;5911;51.036;6.972;2023-09-07T11:00:12;5.13;;;4.25;;
11709;SDS011;5911;51.036;6.972;2023-09-07T11:02:41;4.63;;;3.95;;
11709;SDS011;5911;51.036;6.972;2023-09-07T11:05:09;4.57;;;4.07;;
11709;SDS011;5911;51.036;6.972;2023-09-07T11:07:37;4.05;;;3.60;;
11709;SDS011;5911;51.036;6.972;2023-09-07T11:10:06;4.40;;;4.00;;
11709;SDS011;5911;51.036;6.972;2023-09-07T11:12:37;4.35;;;3.95;;
11709;SDS011;5911;51.036;6.972;2023-09-07T11:15:07;4.40;;;4.00;;
11709;SDS011;5911;51.036;6.972;2023-09-07T11:17:38;4.18;;;3.78;;
11709;SDS011;5911;51.036;6.972;2023-09-07T11:20:06;4.30;;;3.85;;
11709;SDS011;5911;51.036;6.972;2023-09-07T11:22:34;6.50;;;4.00;;
11709;SDS011;5911;51.036;6.972;2023-09-07T11:25:20;5.75;;;3.53;;
11709;SDS011;5911;51.036;6.972;2023-09-07T11:27:48;4.75;;;4.07;;
11709;SDS011;5911;51.036;6.972;2023-09-07T11:30:15;4.88;;;3.47;;
11709;SDS011;5911;51.036;6.972;2023-09-07T11:32:44;4.43;;;3.90;;
11709;SDS011;5911;51.036;6.972;2023-09-07T11:35:12;5.97;;;4.32;;
11709;SDS011;5911;51.036;6.972;2023-09-07T11:37:40;4.55;;;4.10;;
11709;SDS011;5911;51.036;6.972;2023-09-07T11:40:09;4.13;;;3.40;;
11709;SDS011;5911;51.036;6.972;2023-09-07T11:42:38;6.70;;;3.80;;
11709;SDS011;5911;51.036;6.972;2023-09-07T11:45:06;3.95;;;3.55;;
11709;SDS011;5911;51.036;6.972;2023-09-07T11:47:35;4.82;;;4.03;;
11709;SDS011;5911;51.036;6.972;2023-09-07T11:50:05;5.15;;;3.50;;
11709;SDS011;5911;51.036;6.972;2023-09-07T11:52:33;5.05;;;3.60;;
11709;SDS011;5911;51.036;6.972;2023-09-07T11:55:01;3.90;;;3.60;;
11709;SDS011;5911;51.036;6.972;2023-09-07T11:57:29;4.97;;;3.78;;
11709;SDS011;5911;51.036;6.972;2023-09-07T11:59:57;3.92;;;3.50;;
11709;SDS011;5911;51.036;6.972;2023-09-07T12:02:24;4.28;;;3.88;;
11709;SDS011;5911;51.036;6.972;2023-09-07T12:04:53;4.88;;;3.95;;
11709;SDS011;5911;51.036;6.972;2023-09-07T12:07:22;4.13;;;3.72;;
11709;SDS011;5911;51.036;6.972;2023-09-07T12:09:51;5.53;;;3.70;;
11709;SDS011;5911;51.036;6.972;2023-09-07T12:12:22;3.92;;;3.63;;
11709;SDS011;5911;51.036;6.972;2023-09-07T12:14:50;4.15;;;3.78;;
11709;SDS011;5911;51.036;6.972;2023-09-07T12:17:17;4.07;;;3.65;;
11709;SDS011;5911;51.036;6.972;2023-09-07T12:19:46;6.03;;;4.15;;
11709;SDS011;5911;51.036;6.972;2023-09-07T12:22:13;4.13;;;3.60;;
11709;SDS011;5911;51.036;6.972;2023-09-07T12:24:45;4.72;;;3.78;;
11709;SDS011;5911;51.036;6.972;2023-09-07T12:27:24;5.20;;;3.58;;
11709;SDS011;5911;51.036;6.972;2023-09-07T12:29:57;5.00;;;3.92;;
11709;SDS011;5911;51.036;6.972;2023-09-07T12:32:24;3.72;;;3.42;;
11709;SDS011;5911;51.036;6.972;2023-09-07T12:34:52;3.75;;;3.45;;
11709;SDS011;5911;51.036;6.972;2023-09-07T12:37:19;4.43;;;3.97;;
11709;SDS011;5911;51.036;6.972;2023-09-07T12:39:51;4.47;;;4.07;;
11709;SDS011;5911;51.036;6.972;2023-09-07T12:42:18;4.05;;;3.65;;
11709;SDS011;5911;51.036;6.972;2023-09-07T12:44:46;4.20;;;3.55;;
11709;SDS011;5911;51.036;6.972;2023-09-07T12:47:13;4.60;;;3.70;;
11709;SDS011;5911;51.036;6.972;2023-09-07T12:49:41;4.95;;;3.75;;
11709;SDS011;5911;51.036;6.972;2023-09-07T12:52:08;4.38;;;3.40;;
11709;SDS011;5911;51.036;6.972;2023-09-07T12:54:37;6.88;;;3.60;;
11709;SDS011;5911;51.036;6.972;2023-09-07T12:57:06;6.00;;;4.07;;
11709;SDS011;5911;51.036;6.972;2023-09-07T12:59:34;4.18;;;3.78;;
11709;SDS011;5911;51.036;6.972;2023-09-07T13:02:01;4.43;;;3.72;;
11709;SDS011;5911;51.036;6.972;2023-09-07T13:04:29;4.05;;;3.30;;
11709;SDS011;5911;51.036;6.972;2023-09-07T13:06:57;4.28;;;3.50;;
11709;SDS011;5911;51.036;6.972;2023-09-07T13:09:24;3.97;;;3.58;;
11709;SDS011;5911;51.036;6.972;2023-09-07T13:11:52;4.50;;;3.85;;
11709;SDS011;5911;51.036;6.972;2023-09-07T13:14:21;4.07;;;3.67;;
11709;SDS011;5911;51.036;6.972;2023-09-07T13:16:59;5.95;;;3.58;;
11709;SDS011;5911;51.036;6.972;2023-09-07T13:19:27;3.75;;;3.40;;
11709;SDS011;5911;51.036;6.972;2023-09-07T13:21:55;5.95;;;3.60;;
11709;SDS011;5911;51.036;6.972;2023-09-07T13:24:22;3.75;;;3.30;;
11709;SDS011;5911;51.036;6.972;2023-09-07T13:26:50;3.58;;;3.28;;
11709;SDS011;5911;51.036;6.972;2023-09-07T13:29:18;4.40;;;3.35;;
11709;SDS011;5911;51.036;6.972;2023-09-07T13:31:47;3.67;;;3.38;;
11709;SDS011;5911;51.036;6.972;2023-09-07T13:34:14;4.75;;;3.92;;
11709;SDS011;5911;51.036;6.972;2023-09-07T13:36:42;5.28;;;3.70;;
11709;SDS011;5911;51.036;6.972;2023-09-07T13:39:09;4.80;;;3.35;;
11709;SDS011;5911;51.036;6.972;2023-09-07T13:41:37;4.75;;;4.32;;
11709;SDS011;5911;51.036;6.972;2023-09-07T13:44:03;3.92;;;3.47;;
11709;SDS011;5911;51.036;6.972;2023-09-07T13:46:31;6.90;;;4.07;;
11709;SDS011;5911;51.036;6.972;2023-09-07T13:49:00;4.95;;;3.60;;
11709;SDS011;5911;51.036;6.972;2023-09-07T13:51:31;3.55;;;3.25;;
11709;SDS011;5911;51.036;6.972;2023-09-07T13:54:04;4.63;;;3.58;;
11709;SDS011;5911;51.036;6.972;2023-09-07T13:56:32;4.60;;;3.58;;
11709;SDS011;5911;51.036;6.972;2023-09-07T13:58:59;5.18;;;3.72;;
11709;SDS011;5911;51.036;6.972;2023-09-07T14:01:27;5.72;;;4.18;;
11709;SDS011;5911;51.036;6.972;2023-09-07T14:03:54;3.78;;;3.47;;
11709;SDS011;5911;51.036;6.972;2023-09-07T14:06:23;4.05;;;3.28;;
11709;SDS011;5911;51.036;6.972;2023-09-07T14:08:51;3.38;;;3.13;;
11709;SDS011;5911;51.036;6.972;2023-09-07T14:11:19;3.45;;;3.15;;
11709;SDS011;5911;51.036;6.972;2023-09-07T14:13:46;4.50;;;3.50;;
11709;SDS011;5911;51.036;6.972;2023-09-07T14:16:16;4.70;;;3.08;;
11709;SDS011;5911;51.036;6.972;2023-09-07T14:18:43;3.47;;;3.10;;
11709;SDS011;5911;51.036;6.972;2023-09-07T14:21:12;4.45;;;3.60;;
11709;SDS011;5911;51.036;6.972;2023-09-07T14:23:41;5.78;;;3.28;;
11709;SDS011;5911;51.036;6.972;2023-09-07T14:26:09;5.50;;;3.50;;
11709;SDS011;5911;51.036;6.972;2023-09-07T14:28:36;3.72;;;3.30;;
11709;SDS011;5911;51.036;6.972;2023-09-07T14:31:04;3.20;;;2.90;;
11709;SDS011;5911;51.036;6.972;2023-09-07T14:33:32;4.85;;;3.50;;
11709;SDS011;5911;51.036;6.972;2023-09-07T14:36:00;4.60;;;3.55;;
11709;SDS011;5911;51.036;6.972;2023-09-07T14:38:28;3.80;;;3.47;;
11709;SDS011;5911;51.036;6.972;2023-09-07T14:40:57;5.10;;;3.63;;
11709;SDS011;5911;51.036;6.972;2023-09-07T14:43:25;4.63;;;3.50;;
11709;SDS011;5911;51.036;6.972;2023-09-07T14:45:52;4.32;;;2.95;;
11709;SDS011;5911;51.036;6.972;2023-09-07T14:48:20;4.32;;;3.92;;
11709;SDS011;5911;51.036;6.972;2023-09-07T14:50:49;4.22;;;3.42;;
11709;SDS011;5911;51.036;6.972;2023-09-07T14:53:16;3.38;;;3.08;;
11709;SDS011;5911;51.036;6.972;2023-09-07T14:55:44;5.82;;;3.30;;
11709;SDS011;5911;51.036;6.972;2023-09-07T14:58:13;3.75;;;3.45;;
11709;SDS011;5911;51.036;6.972;2023-09-07T15:00:40;4.43;;;3.10;;
11709;SDS011;5911;51.036;6.972;2023-09-07T15:03:08;4.18;;;3.35;;
11709;SDS011;5911;51.036;6.972;2023-09-07T15:05:36;4.40;;;3.72;;
11709;SDS011;5911;51.036;6.972;2023-09-07T15:08:03;3.35;;;3.05;;